Flight Track Log - Related Links

Times and Time Zones

All times are in EDT time to prevent confusion due to time zone crossing. See the SWA3265 flight status page for this flight to view local times or setup timezone preferences in your user account.

Time Position Orientation Groundspeed Altitude Reporting Facility
EDT Latitude Longitude Course Direction KTS MPH feet Rate Location/Type
Sat 11:34:55 AM 44.8528 -93.2331 196° South 167 192 1,900  Level FAA TRACON SMA TRACON (SMA)
Sat 11:35:35 AM 44.8175 -93.2472 211° Southwest 204 235 3,500 2,400 Climbing FAA TRACON SMA TRACON (SMA)
Sat 11:36:15 AM 44.7861 -93.2739 230° Southwest 216 249 5,100 2,700 Climbing FAA TRACON SMA TRACON (SMA)
Sat 11:36:55 AM 44.7558 -93.3244 241° Southwest 253 291 7,100 2,886 Climbing FAA TRACON SMA TRACON (SMA)
Sat 11:37:34 AM 44.7308 -93.3872 241° Southwest 267 307 8,900 2,475 Climbing FAA TRACON SMA TRACON (SMA)
Sat 11:38:15 AM 44.7072 -93.4461 241° Southwest 282 325 10,400 1,704 Climbing FAA TRACON SMA TRACON (SMA)
Sat 11:38:55 AM 44.6769 -93.5222 240° Southwest 332 382 11,200 1,899 Climbing FAA TRACON SMA TRACON (SMA)
Sat 11:39:34 AM 44.6478 -93.5939 241° Southwest 344 396 12,900 2,700 Climbing FAA TRACON SMA TRACON (SMA)
Sat 11:40:15 AM 44.6156 -93.6750 240° Southwest 344 396 14,800 2,500 Climbing FAA TRACON SMA TRACON (SMA)
Sat 11:40:58 AM 44.5783 -93.7658 242° Southwest 352 405 16,400 2,127 Climbing FAA TRACON SMA TRACON (SMA)
Sat 11:41:34 AM 44.5528 -93.8319 241° Southwest 357 411 17,600 1,737 Climbing FAA TRACON SMA TRACON (SMA)
Sat 11:42:14 AM 44.5186 -93.9183 241° Southwest 368 423 18,600 1,650 Climbing FAA TRACON SMA TRACON (SMA)
Sat 11:42:54 AM 44.4833 -94.0081 242° Southwest 381 438 19,800 2,000 Climbing FAA TRACON SMA TRACON (SMA)
Sat 11:43:35 AM 44.4492 -94.0978 241° Southwest 377 434 21,300 1,800 Climbing FAA TRACON SMA TRACON (SMA)
Sat 11:44:14 AM 44.4175 -94.1778 240° Southwest 381 438 22,200 1,367 Climbing FAA TRACON SMA TRACON (SMA)
Sat 11:44:54 AM 44.3803 -94.2692 241° Southwest 391 450 23,100 1,380 Climbing FAA TRACON SMA TRACON (SMA)
Sat 11:45:54 AM 44.3353 -94.3825 239° Southwest 394 453 24,500 1,224 Climbing FAA TRACON SMA TRACON (SMA)
Sat 11:46:32 AM 44.2972 -94.4711 241° Southwest 396 456 25,100 1,102 Climbing Minneapolis Center
Sat 11:47:32 AM 44.2417 -94.6092 241° Southwest 408 470 26,300 1,600 Climbing Minneapolis Center
Sat 11:48:32 AM 44.1817 -94.7586 241° Southwest 408 470 28,300 1,700 Climbing Minneapolis Center
Sat 11:49:32 AM 44.1281 -94.8933 240° Southwest 408 470 29,700 1,450 Climbing Minneapolis Center
Sat 11:50:32 AM 44.0719 -95.0275 240° Southwest 403 464 31,200 1,150 Climbing Minneapolis Center
Sat 11:51:32 AM 44.0244 -95.1417 241° Southwest 403 464 32,000 850 Climbing Minneapolis Center
Sat 11:52:32 AM 43.9703 -95.2756 240° Southwest 403 464 32,900 1,000 Climbing Minneapolis Center
Sat 11:53:32 AM 43.9161 -95.4064 239° Southwest 398 458 34,000 1,000 Climbing Minneapolis Center
Sat 11:54:32 AM 43.8617 -95.5342 240° Southwest 398 458 34,900 750 Climbing Minneapolis Center
Sat 11:55:32 AM 43.8069 -95.6675 239° Southwest 398 458 35,500 595 Climbing Minneapolis Center
Sat 11:56:33 AM 43.7458 -95.8086 240° Southwest 398 458 36,100 250 Climbing Minneapolis Center
Sat 11:57:32 AM 43.6886 -95.9442 240° Southwest 398 458 36,000 -50 Descending Minneapolis Center
Sat 11:58:32 AM 43.6336 -96.0736 240° Southwest 398 458 36,000  Level Minneapolis Center
Sat 11:59:32 AM 43.5783 -96.2031 239° Southwest 398 458 36,000  Level Minneapolis Center
Sat 12:00:32 PM 43.5342 -96.3042 240° Southwest 398 458 36,000  Level Minneapolis Center
Sat 12:01:32 PM 43.4764 -96.4414 240° Southwest 398 458 36,000  Level Minneapolis Center
Sat 12:02:32 PM 43.4206 -96.5728 239° Southwest 398 458 36,000  Level Minneapolis Center
Sat 12:03:32 PM 43.3650 -96.6983 239° Southwest 393 452 36,000  Level Minneapolis Center
Sat 12:04:32 PM 43.3089 -96.8264 239° Southwest 393 452 36,000  Level Minneapolis Center
Sat 12:05:32 PM 43.2531 -96.9544 239° Southwest 393 452 36,000  Level Minneapolis Center
Sat 12:06:32 PM 43.1922 -97.0931 239° Southwest 398 458 36,000  Level Minneapolis Center
Sat 12:07:32 PM 43.1358 -97.2233 239° Southwest 398 458 36,000  Level Minneapolis Center
Sat 12:08:33 PM 43.0814 -97.3478 238° Southwest 398 458 36,000  Level Minneapolis Center
Sat 12:09:32 PM 43.0250 -97.4717 240° Southwest 398 458 36,000  Level Minneapolis Center
Sat 12:10:33 PM 42.9703 -97.5986 238° Southwest 398 458 36,000  Level Minneapolis Center
Sat 12:11:32 PM 42.9133 -97.7250 238° Southwest 398 458 36,000  Level Minneapolis Center
Sat 12:12:32 PM 42.8631 -97.8347 238° Southwest 398 458 36,000  Level Minneapolis Center
Sat 12:13:32 PM 42.8058 -97.9606 235° Southwest 398 458 36,000  Level Minneapolis Center
Sat 12:14:32 PM 42.7425 -98.0858 243° Southwest 398 458 36,000  Level Minneapolis Center
Sat 12:15:32 PM 42.6928 -98.2203 238° Southwest 398 458 36,000  Level Minneapolis Center
Sat 12:16:32 PM 42.6331 -98.3483 238° Southwest 404 465 36,000  Level Minneapolis Center
Sat 12:17:33 PM 42.5753 -98.4731 238° Southwest 404 465 36,000  Level Minneapolis Center
Sat 12:18:32 PM 42.5175 -98.5978 235° Southwest 404 465 36,000  Level Minneapolis Center
Sat 12:19:33 PM 42.4533 -98.7219 227° Southwest 399 459 36,000  Level Minneapolis Center
Sat 12:21:20 PM 42.3114 -98.9269 228° Southwest 403 464 36,000  Level Denver Center
Sat 12:22:20 PM 42.2353 -99.0425 227° Southwest 409 471 36,000  Level Denver Center
Sat 12:23:20 PM 42.1550 -99.1583 228° Southwest 415 478 36,000  Level Denver Center
Sat 12:24:20 PM 42.0789 -99.2736 228° Southwest 420 483 36,000  Level Denver Center
Sat 12:25:20 PM 41.9986 -99.3917 227° Southwest 420 483 36,000  Level Denver Center
Sat 12:26:20 PM 41.9219 -99.5033 227° Southwest 420 483 36,000  Level Denver Center
Sat 12:27:20 PM 41.8411 -99.6208 227° Southwest 420 483 36,000  Level Denver Center
Sat 12:28:20 PM 41.7547 -99.7469 227° Southwest 429 494 36,000  Level Denver Center
Sat 12:29:20 PM 41.6833 -99.8489 228° Southwest 434 499 36,000  Level Denver Center
Sat 12:30:20 PM 41.5986 -99.9744 228° Southwest 421 484 36,000  Level Denver Center
Sat 12:31:20 PM 41.5214 -100.0875 225° Southwest 421 484 36,000  Level Denver Center
Sat 12:32:20 PM 41.4475 -100.1861 227° Southwest 421 484 36,000  Level Denver Center
Sat 12:33:20 PM 41.3700 -100.2961 228° Southwest 421 484 36,000  Level Denver Center
Sat 12:34:20 PM 41.2847 -100.4203 226° Southwest 421 484 36,000  Level Denver Center
Sat 12:35:20 PM 41.2050 -100.5297 226° Southwest 421 484 36,000  Level Denver Center
Sat 12:36:20 PM 41.1331 -100.6300 227° Southwest 421 484 36,000  Level Denver Center
Sat 12:37:20 PM 41.0492 -100.7506 226° Southwest 421 484 36,000  Level Denver Center
Sat 12:38:20 PM 40.9692 -100.8619 227° Southwest 421 484 36,000  Level Denver Center
Sat 12:39:20 PM 40.8969 -100.9642 226° Southwest 421 484 36,000  Level Denver Center
Sat 12:40:20 PM 40.8108 -101.0839 231° Southwest 421 484 36,000  Level Denver Center
Sat 12:41:20 PM 40.7411 -101.1994 232° Southwest 416 479 36,000  Level Denver Center
Sat 12:42:20 PM 40.6769 -101.3058 231° Southwest 416 479 36,000  Level Denver Center
Sat 12:43:20 PM 40.6050 -101.4233 232° Southwest 416 479 36,000  Level Denver Center
Sat 12:44:20 PM 40.5272 -101.5522 231° Southwest 416 479 36,000  Level Denver Center
Sat 12:45:20 PM 40.4531 -101.6725 230° Southwest 416 479 36,000  Level Denver Center
Sat 12:46:20 PM 40.3864 -101.7753 231° Southwest 411 473 36,000  Level Denver Center
Sat 12:47:20 PM 40.3139 -101.8922 231° Southwest 417 480 36,000  Level Denver Center
Sat 12:48:20 PM 40.2353 -102.0200 231° Southwest 417 480 36,000  Level Denver Center
Sat 12:49:20 PM 40.1606 -102.1389 231° Southwest 417 480 36,000  Level Denver Center
Sat 12:50:20 PM 40.0958 -102.2436 232° Southwest 412 474 36,000  Level Denver Center
Sat 12:51:20 PM 40.0231 -102.3647 229° Southwest 417 480 36,000  Level Denver Center
Sat 12:52:20 PM 39.9417 -102.4889 230° Southwest 417 480 36,000  Level Denver Center
Sat 12:53:20 PM 39.8686 -102.6042 232° Southwest 417 480 36,000  Level Denver Center
Sat 12:54:20 PM 39.7975 -102.7244 230° Southwest 417 480 36,000  Level Denver Center
Sat 12:55:20 PM 39.7300 -102.8281 229° Southwest 417 480 36,000  Level Denver Center
Sat 12:56:20 PM 39.6561 -102.9397 231° Southwest 410 472 36,000  Level Denver Center
Sat 12:57:20 PM 39.5825 -103.0567 231° Southwest 415 478 36,000  Level Denver Center
Sat 12:58:20 PM 39.5108 -103.1706 229° Southwest 415 478 36,000  Level Denver Center
Sat 12:59:20 PM 39.4347 -103.2847 230° Southwest 415 478 36,000  Level Denver Center
Sat 01:00:19 PM 39.3528 -103.4119 229° Southwest 415 478 36,000  Level Denver Center
Sat 01:01:20 PM 39.2786 -103.5225 230° Southwest 415 478 36,000  Level Denver Center
Sat 01:02:20 PM 39.2042 -103.6381 229° Southwest 410 472 36,000  Level Denver Center
Sat 01:03:20 PM 39.1278 -103.7511 230° Southwest 419 482 36,000  Level Denver Center
Sat 01:04:20 PM 39.0553 -103.8636 229° Southwest 419 482 36,000  Level Denver Center
Sat 01:05:20 PM 38.9786 -103.9758 230° Southwest 419 482 36,000  Level Denver Center
Sat 01:06:20 PM 38.9039 -104.0906 228° Southwest 419 482 36,000  Level Denver Center
Sat 01:07:20 PM 38.8350 -104.1889 231° Southwest 419 482 36,000  Level Denver Center
Sat 01:08:20 PM 38.7581 -104.3086 228° Southwest 425 489 36,000  Level Denver Center
Sat 01:09:20 PM 38.6808 -104.4200 230° Southwest 425 489 36,000  Level Denver Center
Sat 01:10:20 PM 38.6058 -104.5339 228° Southwest 419 482 36,000  Level Denver Center
Sat 01:11:20 PM 38.5283 -104.6447 230° Southwest 419 482 36,000  Level Denver Center
Sat 01:12:20 PM 38.4447 -104.7714 229° Southwest 424 488 36,000 50 Level Denver Center
Sat 01:13:20 PM 38.3672 -104.8844 230° Southwest 429 494 36,100  Climbing Denver Center
Sat 01:14:20 PM 38.2894 -105.0025 230° Southwest 439 505 36,000 -50 Descending Denver Center
Sat 01:15:20 PM 38.2139 -105.1178 228° Southwest 439 505 36,000 50 Level Denver Center
Sat 01:16:20 PM 38.1419 -105.2194 229° Southwest 439 505 36,100  Climbing Denver Center
Sat 01:17:20 PM 38.0578 -105.3422 228° Southwest 434 499 36,000 -50 Descending Denver Center
Sat 01:18:20 PM 37.9775 -105.4539 229° Southwest 434 499 36,000  Level Denver Center
Sat 01:19:20 PM 37.9075 -105.5575 229° Southwest 434 499 36,000  Level Denver Center
Sat 01:20:20 PM 37.8314 -105.6689 228° Southwest 434 499 36,000  Level Denver Center
Sat 01:21:20 PM 37.7425 -105.7933 229° Southwest 432 497 36,000  Level Denver Center
Sat 01:22:20 PM 37.6681 -105.9014 227° Southwest 426 490 36,000  Level Denver Center
Sat 01:23:20 PM 37.5956 -105.9989 229° Southwest 420 483 36,000  Level Denver Center
Sat 01:24:20 PM 37.5228 -106.1042 229° Southwest 412 474 36,000  Level Denver Center
Sat 01:25:20 PM 37.4461 -106.2169 228° Southwest 412 474 36,000  Level Denver Center
Sat 01:26:20 PM 37.3628 -106.3347 227° Southwest 417 480 36,000  Level Denver Center
Sat 01:27:20 PM 37.2817 -106.4442 229° Southwest 422 486 36,000  Level Denver Center
Sat 01:28:20 PM 37.2150 -106.5406 228° Southwest 422 486 36,000  Level Denver Center
Sat 01:29:20 PM 37.1336 -106.6525 229° Southwest 422 486 36,000  Level Denver Center
Sat 01:30:20 PM 37.0500 -106.7719 227° Southwest 422 486 36,000  Level Denver Center
Sat 01:31:20 PM 36.9706 -106.8781 228° Southwest 422 486 36,000  Level Denver Center
Sat 01:32:20 PM 36.9014 -106.9736 227° Southwest 422 486 36,000  Level Denver Center
Sat 01:33:20 PM 36.8217 -107.0819 227° Southwest 417 480 36,000  Level Denver Center
Sat 01:34:20 PM 36.7356 -107.1978 228° Southwest 417 480 36,000  Level Denver Center
Sat 01:35:20 PM 36.6575 -107.3056 227° Southwest 417 480 36,000  Level Denver Center
Sat 01:37:29 PM 36.4942 -107.5267 227° Southwest 421 484 36,000  Level Albuquerque Center
Sat 01:38:29 PM 36.4061 -107.6425 228° Southwest 421 484 36,000  Level Albuquerque Center
Sat 01:39:29 PM 36.3286 -107.7481 228° Southwest 421 484 36,000  Level Albuquerque Center
Sat 01:40:29 PM 36.2553 -107.8481 227° Southwest 421 484 36,000  Level Albuquerque Center
Sat 01:41:29 PM 36.1756 -107.9531 226° Southwest 421 484 36,000  Level Albuquerque Center
Sat 01:42:29 PM 36.0872 -108.0681 227° Southwest 421 484 36,000  Level Albuquerque Center
Sat 01:43:29 PM 36.0075 -108.1753 227° Southwest 421 484 36,000  Level Albuquerque Center
Sat 01:44:29 PM 35.9358 -108.2694 227° Southwest 421 484 36,000  Level Albuquerque Center
Sat 01:45:29 PM 35.8556 -108.3761 227° Southwest 421 484 36,000  Level Albuquerque Center
Sat 01:46:30 PM 35.7669 -108.4928 227° Southwest 426 490 36,000  Level Albuquerque Center
Sat 01:47:29 PM 35.6867 -108.5989 226° Southwest 426 490 36,000  Level Albuquerque Center
Sat 01:48:29 PM 35.6061 -108.7025 226° Southwest 421 484 36,000  Level Albuquerque Center
Sat 01:49:29 PM 35.5342 -108.7956 226° Southwest 421 484 36,000  Level Albuquerque Center
Sat 01:50:29 PM 35.4536 -108.8989 227° Southwest 421 484 36,000  Level Albuquerque Center
Sat 01:51:29 PM 35.3664 -109.0142 225° Southwest 421 484 36,000  Level Albuquerque Center
Sat 01:52:29 PM 35.2836 -109.1169 227° Southwest 421 484 36,000  Level Albuquerque Center
Sat 01:53:29 PM 35.2133 -109.2094 227° Southwest 421 484 36,000  Level Albuquerque Center
Sat 01:54:29 PM 35.1325 -109.3142 226° Southwest 421 484 36,000  Level Albuquerque Center
Sat 01:55:29 PM 35.0428 -109.4261 227° Southwest 421 484 36,000  Level Albuquerque Center
Sat 01:56:29 PM 34.9617 -109.5306 226° Southwest 421 484 36,000  Level Albuquerque Center
Sat 01:57:29 PM 34.8892 -109.6222 226° Southwest 421 484 36,000  Level Albuquerque Center
Sat 01:58:29 PM 34.8078 -109.7264 228° Southwest 421 484 36,000  Level Albuquerque Center
Sat 01:59:29 PM 34.7242 -109.8378 240° Southwest 421 484 36,000  Level Albuquerque Center
Sat 02:00:29 PM 34.6672 -109.9597 246° West 421 484 36,000  Level Albuquerque Center
Sat 02:01:29 PM 34.6250 -110.0769 246° West 418 481 36,000  Level Albuquerque Center
Sat 02:02:29 PM 34.5783 -110.2017 245° Southwest 418 481 36,000 -550 Level Albuquerque Center
Sat 02:03:29 PM 34.5250 -110.3408 249° West 413 475 34,900 -1,500 Descending Albuquerque Center
Sat 02:04:29 PM 34.4864 -110.4628 246° West 425 489 33,000 -1,450 Descending Albuquerque Center
Sat 02:05:29 PM 34.4414 -110.5847 245° Southwest 419 482 32,000 -1,800 Descending Albuquerque Center
Sat 02:06:29 PM 34.3919 -110.7111 240° Southwest 414 476 29,400 -2,050 Descending Albuquerque Center
Sat 02:07:29 PM 34.3300 -110.8392 225° Southwest 414 476 27,900 -1,650 Descending Albuquerque Center
Sat 02:08:29 PM 34.2564 -110.9292 227° Southwest 399 459 26,100 -1,983 Descending Albuquerque Center
Sat 02:09:30 PM 34.1803 -111.0264 225° Southwest 393 452 23,900 -2,100 Descending Albuquerque Center
Sat 02:10:29 PM 34.1089 -111.1133 227° Southwest 388 447 21,900 -2,067 Descending Albuquerque Center
Sat 02:11:29 PM 34.0369 -111.2053 228° Southwest 383 441 19,800 -1,850 Descending Albuquerque Center
Sat 02:12:29 PM 33.9869 -111.2731 227° Southwest 372 428 18,200 -1,800 Descending Albuquerque Center
Sat 02:13:29 PM 33.9150 -111.3675 232° Southwest 355 409 16,200 -1,708 Descending Albuquerque Center
Sat 02:14:39 PM 33.8500 -111.4667 234° Southwest 307 353 14,500 -1,523 Descending Phoenix TRACON
Sat 02:15:39 PM 33.8000 -111.5500 234° Southwest 303 349 12,900 -1,650 Descending Phoenix TRACON
Sat 02:16:39 PM 33.7500 -111.6333 244° Southwest 300 345 11,200 -1,438 Descending Phoenix TRACON
Sat 02:17:40 PM 33.7167 -111.7167 234° Southwest 296 341 10,000 -595 Descending Phoenix TRACON
Sat 02:18:40 PM 33.6667 -111.8000 234° Southwest 279 321 10,000 -429 Level Phoenix TRACON
Sat 02:19:46 PM 33.6167 -111.8833 239° Southwest 290 334 9,100 -500 Descending Phoenix TRACON
Sat 02:20:40 PM 33.5833 -111.9500 244° Southwest 250 288 9,000 -737 Descending Phoenix TRACON
Sat 02:21:40 PM 33.5500 -112.0333 253° West 252 290 7,700 -1,150 Descending Phoenix TRACON
Sat 02:22:40 PM 33.5333 -112.1000 270° West 246 283 6,700 -950 Descending Phoenix TRACON
Sat 02:23:40 PM 33.5333 -112.1833 196° South 205 236 5,800 -1,300 Descending Phoenix TRACON
Sat 02:24:40 PM 33.4833 -112.2000 121° Southeast 183 211 4,100 -1,300 Descending Phoenix TRACON
Sat 02:25:40 PM 33.4667 -112.1667 107° East 170 196 3,200 -800 Descending Phoenix TRACON
Sat 02:26:40 PM 33.4500 -112.1000 107° East 169 194 2,500 -700 Descending Phoenix TRACON

Login

Don't have an account? Register now (free) for customized features, flight alerts, and more!